createdAt,value
2022-09-14T00:01:31.751Z,9.60
2022-09-14T00:04:03.692Z,7.15
2022-09-14T00:06:31.168Z,7.15
2022-09-14T00:09:03.037Z,5.72
2022-09-14T00:11:32.082Z,7.10
2022-09-14T00:14:01.465Z,6.93
2022-09-14T00:16:36.637Z,9.65
2022-09-14T00:19:23.559Z,11.60
2022-09-14T00:21:56.975Z,8.48
2022-09-14T00:24:26.867Z,7.45
2022-09-14T00:26:54.216Z,5.65
2022-09-14T00:29:21.438Z,5.65
2022-09-14T00:31:48.265Z,5.28
2022-09-14T00:34:17.129Z,6.88
2022-09-14T00:36:47.427Z,5.00
2022-09-14T00:39:16.346Z,4.55
2022-09-14T00:41:45.885Z,7.57
2022-09-14T00:44:15.216Z,8.65
2022-09-14T00:46:48.601Z,8.25
2022-09-14T00:49:24.115Z,8.55
2022-09-14T00:51:59.164Z,8.55
2022-09-14T00:54:26.767Z,5.85
2022-09-14T00:56:54.837Z,6.57
2022-09-14T00:59:31.011Z,9.77
2022-09-14T01:01:58.071Z,8.65
2022-09-14T01:04:25.002Z,6.13
2022-09-14T01:07:34.169Z,7.88
2022-09-14T01:10:12.276Z,6.30
2022-09-14T01:12:58.567Z,9.27
2022-09-14T01:15:56.420Z,10.80
2022-09-14T01:18:33.363Z,12.13
2022-09-14T01:21:32.730Z,8.70
2022-09-14T01:24:33.334Z,12.15
2022-09-14T01:27:34.715Z,13.20
2022-09-14T01:30:12.811Z,14.55
2022-09-14T01:32:45.165Z,10.85
2022-09-14T01:35:27.406Z,6.35
2022-09-14T01:38:18.932Z,10.40
2022-09-14T01:40:49.958Z,7.97
2022-09-14T01:43:40.847Z,6.15
2022-09-14T01:46:18.355Z,5.90
2022-09-14T01:49:32.195Z,7.45
2022-09-14T01:52:13.241Z,8.95
2022-09-14T01:54:45.221Z,3.83
2022-09-14T01:57:17.917Z,4.75
2022-09-14T01:59:47.354Z,6.13
2022-09-14T02:02:39.889Z,6.25
2022-09-14T02:05:41.207Z,4.95
2022-09-14T02:08:08.995Z,5.13
2022-09-14T02:10:36.171Z,8.45
2022-09-14T02:13:03.385Z,5.85
2022-09-14T02:15:30.490Z,6.78
2022-09-14T02:17:57.327Z,5.53
2022-09-14T02:20:37.071Z,6.57
2022-09-14T02:23:05.258Z,5.90
2022-09-14T02:25:33.319Z,18.35
2022-09-14T02:28:00.211Z,15.55
2022-09-14T02:30:28.318Z,14.25
2022-09-14T02:33:18.280Z,6.70
2022-09-14T02:35:54.219Z,6.03
2022-09-14T02:38:59.484Z,5.72
2022-09-14T02:42:04.132Z,7.28
2022-09-14T02:45:02.489Z,6.72
2022-09-14T02:47:38.431Z,10.25
2022-09-14T02:50:36.833Z,8.45
2022-09-14T02:53:27.020Z,6.43
2022-09-14T02:56:01.703Z,6.72
2022-09-14T02:58:44.230Z,7.40
2022-09-14T03:01:18.698Z,6.18
2022-09-14T03:03:45.589Z,7.43
2022-09-14T03:06:12.737Z,3.78
2022-09-14T03:08:41.565Z,4.85
2022-09-14T03:11:08.911Z,4.68
2022-09-14T03:13:36.686Z,7.05
2022-09-14T03:16:12.195Z,3.22
2022-09-14T03:18:40.016Z,4.93
2022-09-14T03:21:13.629Z,5.43
2022-09-14T03:23:50.160Z,6.05
2022-09-14T03:26:23.437Z,6.88
2022-09-14T03:28:56.732Z,5.82
2022-09-14T03:31:24.299Z,4.82
2022-09-14T03:33:57.206Z,5.60
2022-09-14T03:36:26.870Z,4.97
2022-09-14T03:38:56.396Z,5.53
2022-09-14T03:41:24.464Z,6.78
2022-09-14T03:43:51.909Z,7.32
2022-09-14T03:46:23.436Z,10.48
2022-09-14T03:48:51.456Z,6.88
2022-09-14T03:51:18.906Z,8.05
2022-09-14T03:53:46.530Z,4.85
2022-09-14T03:56:20.352Z,5.75
2022-09-14T03:58:49.318Z,7.95
2022-09-14T04:01:20.587Z,6.35
2022-09-14T04:03:48.676Z,12.27
2022-09-14T04:06:17.002Z,3.88
2022-09-14T04:08:45.908Z,3.90
2022-09-14T04:11:20.030Z,3.63
2022-09-14T04:13:47.977Z,3.25
2022-09-14T04:16:16.153Z,2.33
2022-09-14T04:18:43.615Z,3.80
2022-09-14T04:21:17.355Z,4.45
2022-09-14T04:24:13.249Z,7.13
2022-09-14T04:26:32.750Z,6.93
2022-09-14T04:28:59.837Z,5.20
2022-09-14T04:31:26.852Z,7.90
2022-09-14T04:33:56.443Z,5.75
2022-09-14T04:36:28.491Z,6.13
2022-09-14T04:38:58.238Z,5.30
2022-09-14T04:41:26.528Z,9.82
2022-09-14T04:43:55.943Z,5.82
2022-09-14T04:46:43.598Z,4.47
2022-09-14T04:49:14.788Z,9.57
2022-09-14T04:51:41.572Z,6.40
2022-09-14T04:54:10.085Z,5.75
2022-09-14T04:56:37.154Z,4.90
2022-09-14T04:59:05.772Z,10.10
2022-09-14T05:01:42.791Z,6.65
2022-09-14T05:04:11.838Z,2.88
2022-09-14T05:06:40.920Z,5.57
2022-09-14T05:09:15.862Z,12.45
2022-09-14T05:11:43.145Z,7.22
2022-09-14T05:14:13.206Z,3.83
2022-09-14T05:16:41.762Z,3.58
2022-09-14T05:19:14.738Z,7.22
2022-09-14T05:21:41.866Z,6.63
2022-09-14T05:24:17.936Z,5.68
2022-09-14T05:26:46.304Z,5.00
2022-09-14T05:29:18.645Z,3.33
2022-09-14T05:31:46.327Z,6.93
2022-09-14T05:34:13.470Z,6.40
2022-09-14T05:36:40.876Z,4.75
2022-09-14T05:39:08.883Z,3.42
2022-09-14T05:41:37.573Z,4.30
2022-09-14T05:44:05.405Z,5.97
2022-09-14T05:46:32.840Z,5.22
2022-09-14T05:48:59.754Z,5.25
2022-09-14T05:51:28.284Z,8.38
2022-09-14T05:53:57.709Z,5.00
2022-09-14T05:56:28.542Z,6.03
2022-09-14T05:58:56.176Z,6.28
2022-09-14T06:01:26.320Z,4.93
2022-09-14T06:03:55.977Z,4.95
2022-09-14T06:06:24.087Z,5.70
2022-09-14T06:08:54.013Z,9.43
2022-09-14T06:11:31.436Z,10.93
2022-09-14T06:13:59.315Z,6.45
2022-09-14T06:16:28.113Z,11.27
2022-09-14T06:18:57.936Z,15.63
2022-09-14T06:21:33.023Z,23.05
2022-09-14T06:24:00.524Z,16.33
2022-09-14T06:26:27.459Z,17.15
2022-09-14T06:28:54.526Z,34.17
2022-09-14T06:31:22.619Z,45.95
2022-09-14T06:33:51.895Z,47.55
2022-09-14T06:36:23.301Z,68.72
2022-09-14T06:38:50.667Z,93.18
2022-09-14T06:41:22.736Z,81.25
2022-09-14T06:43:51.033Z,81.15
2022-09-14T06:46:27.874Z,56.90
2022-09-14T06:49:00.716Z,126.93
2022-09-14T06:51:35.420Z,128.55
2022-09-14T06:54:03.937Z,165.38
2022-09-14T06:56:37.162Z,187.63
2022-09-14T06:59:06.106Z,48.70
2022-09-14T07:01:33.729Z,235.23
2022-09-14T07:04:01.661Z,212.05
2022-09-14T07:06:41.910Z,276.80
2022-09-14T07:09:09.037Z,73.60
2022-09-14T07:11:36.485Z,72.95
2022-09-14T07:14:03.676Z,79.45
2022-09-14T07:16:32.650Z,73.13
2022-09-14T07:19:02.950Z,71.47
2022-09-14T07:21:32.055Z,48.13
2022-09-14T07:23:59.198Z,34.15
2022-09-14T07:26:33.715Z,38.78
2022-09-14T07:29:04.551Z,48.50
2022-09-14T07:31:45.749Z,39.58
2022-09-14T07:34:13.480Z,37.08
2022-09-14T07:36:41.206Z,42.13
2022-09-14T07:39:11.820Z,35.67
2022-09-14T07:41:39.016Z,34.75
2022-09-14T07:44:08.295Z,47.60
2022-09-14T07:46:41.624Z,65.75
2022-09-14T07:49:09.759Z,78.38
2022-09-14T07:51:38.697Z,57.97
2022-09-14T07:54:07.607Z,108.70
2022-09-14T07:56:35.231Z,98.32
2022-09-14T07:59:30.853Z,95.97
2022-09-14T08:01:51.369Z,141.77
2022-09-14T08:04:18.406Z,99.30
2022-09-14T08:06:45.262Z,63.10
2022-09-14T08:09:12.504Z,57.60
2022-09-14T08:11:39.441Z,37.97
2022-09-14T08:14:10.210Z,69.75
2022-09-14T08:16:38.907Z,81.00
2022-09-14T08:19:12.402Z,87.32
2022-09-14T08:21:44.096Z,76.72
2022-09-14T08:24:14.844Z,71.53
2022-09-14T08:26:41.948Z,96.85
2022-09-14T08:29:08.821Z,58.97
2022-09-14T08:31:39.935Z,42.35
2022-09-14T08:34:07.576Z,43.17
2022-09-14T08:36:37.790Z,40.55
2022-09-14T08:39:10.787Z,34.20
2022-09-14T08:41:43.591Z,25.02
2022-09-14T08:44:35.471Z,35.80
2022-09-14T08:47:19.433Z,24.90
2022-09-14T08:49:52.383Z,24.67
2022-09-14T08:52:26.151Z,18.23
2022-09-14T08:55:00.480Z,17.73
2022-09-14T08:57:44.088Z,20.38
2022-09-14T09:00:16.613Z,16.70
2022-09-14T09:03:18.898Z,21.33
2022-09-14T09:06:15.761Z,20.70
2022-09-14T09:09:13.713Z,17.25
2022-09-14T09:11:46.542Z,18.10
2022-09-14T09:14:26.832Z,18.38
2022-09-14T09:16:57.832Z,14.20
2022-09-14T09:19:32.059Z,15.95
2022-09-14T09:22:03.316Z,15.73
2022-09-14T09:24:37.241Z,13.93
2022-09-14T09:27:14.382Z,19.33
2022-09-14T09:29:41.812Z,15.60
2022-09-14T09:32:15.760Z,18.63
2022-09-14T09:34:42.602Z,15.15
2022-09-14T09:37:20.369Z,17.02
2022-09-14T09:39:47.535Z,13.85
2022-09-14T09:42:24.703Z,14.50
2022-09-14T09:45:02.565Z,19.92
2022-09-14T09:47:39.146Z,17.10
2022-09-14T09:50:21.171Z,18.05
2022-09-14T09:52:55.100Z,15.15
2022-09-14T09:55:27.207Z,17.90
2022-09-14T10:00:28.485Z,12.55
2022-09-14T10:02:56.349Z,14.05
2022-09-14T10:05:29.146Z,14.20
2022-09-14T10:08:02.312Z,12.23
2022-09-14T10:10:35.316Z,9.23
2022-09-14T10:13:06.604Z,8.73
2022-09-14T10:15:36.575Z,11.17
2022-09-14T10:18:11.469Z,7.18
2022-09-14T10:20:45.115Z,7.85
2022-09-14T10:23:17.745Z,13.40
2022-09-14T10:26:14.291Z,6.63
2022-09-14T10:28:48.641Z,6.55
2022-09-14T10:31:15.938Z,6.70
2022-09-14T10:33:43.031Z,8.00
2022-09-14T10:36:33.482Z,9.40
2022-09-14T10:39:11.041Z,7.28
2022-09-14T10:42:00.397Z,8.88
2022-09-14T10:44:56.349Z,4.20
2022-09-14T10:48:02.602Z,6.85
2022-09-14T10:50:57.426Z,6.93
2022-09-14T10:53:45.607Z,6.35
2022-09-14T10:56:26.314Z,5.88
2022-09-14T10:59:23.502Z,5.78
2022-09-14T11:02:37.695Z,7.20
2022-09-14T11:05:07.842Z,6.60
2022-09-14T11:07:52.725Z,5.47
2022-09-14T11:10:32.939Z,6.20
2022-09-14T11:13:27.258Z,5.50
2022-09-14T11:16:03.210Z,5.70
2022-09-14T11:19:11.847Z,5.75
2022-09-14T11:21:44.637Z,8.18
2022-09-14T11:24:23.517Z,4.40
2022-09-14T11:27:01.992Z,8.98
2022-09-14T11:29:50.762Z,4.88
2022-09-14T11:32:22.850Z,6.70
2022-09-14T11:37:57.454Z,9.20
2022-09-14T11:40:32.216Z,4.95
2022-09-14T11:43:24.877Z,6.25
2022-09-14T11:46:19.451Z,7.78
2022-09-14T11:49:13.011Z,9.32
2022-09-14T11:52:08.059Z,5.70
2022-09-14T11:54:35.167Z,8.18
2022-09-14T11:57:04.034Z,6.28
2022-09-14T11:59:40.062Z,7.78
2022-09-14T12:02:25.538Z,5.55
2022-09-14T12:05:18.603Z,7.20
2022-09-14T12:07:50.201Z,7.80
2022-09-14T12:10:20.498Z,6.80
2022-09-14T12:12:51.169Z,5.85
2022-09-14T12:15:27.288Z,6.22
2022-09-14T12:18:24.394Z,6.63
2022-09-14T12:21:01.833Z,6.43
2022-09-14T12:23:37.534Z,10.35
2022-09-14T12:26:19.766Z,8.70
2022-09-14T12:28:50.942Z,7.78
2022-09-14T12:31:51.953Z,7.22
2022-09-14T12:34:31.739Z,8.30
2022-09-14T12:37:06.606Z,3.63
2022-09-14T12:39:36.952Z,5.00
2022-09-14T12:42:29.868Z,5.43
2022-09-14T12:44:56.880Z,5.60
2022-09-14T12:47:38.905Z,8.65
2022-09-14T12:50:19.582Z,5.97
2022-09-14T12:53:00.553Z,5.03
2022-09-14T12:55:45.988Z,5.05
2022-09-14T12:58:37.532Z,4.82
2022-09-14T13:01:31.211Z,9.63
2022-09-14T13:03:58.547Z,4.53
2022-09-14T13:06:42.171Z,8.80
2022-09-14T13:09:26.588Z,6.72
2022-09-14T13:11:59.418Z,7.97
2022-09-14T13:14:36.985Z,9.50
2022-09-14T13:17:06.251Z,6.80
2022-09-14T13:19:34.216Z,6.22
2022-09-14T13:22:02.606Z,3.50
2022-09-14T13:24:48.941Z,2.75
2022-09-14T13:27:28.955Z,3.88
2022-09-14T13:30:07.163Z,6.18
2022-09-14T13:32:43.059Z,2.35
2022-09-14T13:35:30.095Z,2.70
2022-09-14T13:37:59.680Z,3.33
2022-09-14T13:40:30.191Z,3.20
2022-09-14T13:42:59.282Z,9.52
2022-09-14T13:45:26.743Z,2.22
2022-09-14T13:47:54.499Z,2.20
2022-09-14T13:50:25.386Z,2.33
2022-09-14T13:53:02.955Z,2.63
2022-09-14T13:55:33.722Z,1.85
2022-09-14T13:58:09.529Z,4.82
2022-09-14T14:00:59.925Z,5.05
2022-09-14T14:03:41.630Z,2.15
2022-09-14T14:06:31.046Z,3.17
2022-09-14T14:09:05.141Z,3.25
2022-09-14T14:11:41.166Z,2.28
2022-09-14T14:14:17.230Z,2.92
2022-09-14T14:17:23.454Z,6.07
2022-09-14T14:19:59.141Z,4.85
2022-09-14T14:22:37.708Z,2.83
2022-09-14T14:25:19.735Z,4.47
2022-09-14T14:27:48.367Z,2.33
2022-09-14T14:30:21.844Z,3.70
2022-09-14T14:32:54.803Z,4.57
2022-09-14T14:35:30.613Z,2.78
2022-09-14T14:37:58.288Z,6.05
2022-09-14T14:40:27.561Z,3.75
2022-09-14T14:42:55.441Z,5.00
2022-09-14T14:45:26.341Z,4.05
2022-09-14T14:47:55.402Z,8.52
2022-09-14T14:50:33.945Z,2.17
2022-09-14T14:53:01.902Z,3.65
2022-09-14T14:55:32.278Z,5.50
2022-09-14T14:58:07.233Z,4.80
2022-09-14T15:00:37.094Z,3.75
2022-09-14T15:03:04.313Z,4.15
2022-09-14T15:05:31.402Z,5.10
2022-09-14T15:07:58.442Z,3.60
2022-09-14T15:10:28.607Z,5.28
2022-09-14T15:12:55.554Z,5.15
2022-09-14T15:15:25.938Z,3.53
2022-09-14T15:17:54.259Z,8.63
2022-09-14T15:20:22.119Z,5.22
2022-09-14T15:22:49.690Z,3.45
2022-09-14T15:25:18.785Z,3.78
2022-09-14T15:27:46.345Z,3.63
2022-09-14T15:30:14.940Z,4.60
2022-09-14T15:32:42.565Z,4.10
2022-09-14T15:35:14.231Z,4.13
2022-09-14T15:37:41.773Z,5.40
2022-09-14T15:40:09.805Z,3.75
2022-09-14T15:42:36.803Z,8.20
2022-09-14T15:45:05.062Z,4.20
2022-09-14T15:47:36.184Z,4.30
2022-09-14T15:50:05.395Z,7.85
2022-09-14T15:52:36.362Z,6.00
2022-09-14T15:55:08.770Z,9.60
2022-09-14T16:00:08.676Z,7.32
2022-09-14T16:05:02.603Z,8.15
2022-09-14T16:07:29.780Z,5.47
2022-09-14T16:09:58.949Z,7.13
2022-09-14T16:12:26.172Z,5.80
2022-09-14T16:14:52.991Z,4.20
2022-09-14T16:17:19.878Z,9.95
2022-09-14T16:19:49.172Z,8.18
2022-09-14T16:22:16.007Z,7.47
2022-09-14T16:24:43.441Z,5.72
2022-09-14T16:27:10.535Z,6.47
2022-09-14T16:29:37.574Z,8.52
2022-09-14T16:32:04.525Z,6.05
2022-09-14T16:34:31.638Z,10.52
2022-09-14T16:36:58.737Z,7.28
2022-09-14T16:39:29.532Z,6.75
2022-09-14T16:41:57.295Z,10.50
2022-09-14T16:44:26.558Z,7.63
2022-09-14T16:46:57.758Z,7.28
2022-09-14T16:49:27.766Z,8.00
2022-09-14T16:51:56.671Z,6.05
2022-09-14T16:54:25.666Z,5.38
2022-09-14T16:56:57.156Z,8.00
2022-09-14T16:59:24.442Z,10.70
2022-09-14T17:01:54.717Z,6.72
2022-09-14T17:04:23.678Z,7.97
2022-09-14T17:06:52.022Z,4.63
2022-09-14T17:09:25.886Z,7.10
2022-09-14T17:11:54.254Z,5.35
2022-09-14T17:14:25.906Z,6.88
2022-09-14T17:16:53.311Z,7.53
2022-09-14T17:19:20.736Z,5.20
2022-09-14T17:21:48.496Z,5.72
2022-09-14T17:24:17.331Z,7.47
2022-09-14T17:26:45.318Z,8.90
2022-09-14T17:29:13.092Z,7.90
2022-09-14T17:31:43.154Z,6.30
2022-09-14T17:34:13.684Z,8.38
2022-09-14T17:36:40.876Z,6.00
2022-09-14T17:39:12.074Z,3.58
2022-09-14T17:41:40.976Z,3.73
2022-09-14T17:44:11.741Z,2.65
2022-09-14T17:46:48.165Z,2.97
2022-09-14T17:49:19.280Z,3.33
2022-09-14T17:51:46.172Z,2.38
2022-09-14T17:54:13.520Z,2.03
2022-09-14T17:56:40.837Z,2.28
2022-09-14T17:59:16.647Z,1.83
2022-09-14T18:01:43.562Z,2.80
2022-09-14T18:04:13.254Z,1.83
2022-09-14T18:06:44.264Z,1.63
2022-09-14T18:09:22.101Z,2.63
2022-09-14T18:11:50.518Z,4.00
2022-09-14T18:14:17.887Z,1.85
2022-09-14T18:16:45.542Z,2.22
2022-09-14T18:19:14.875Z,3.08
2022-09-14T18:21:42.932Z,3.45
2022-09-14T18:24:11.929Z,1.35
2022-09-14T18:26:38.760Z,1.95
2022-09-14T18:29:05.750Z,3.53
2022-09-14T18:31:32.905Z,2.38
2022-09-14T18:34:00.891Z,2.47
2022-09-14T18:36:29.771Z,2.38
2022-09-14T18:39:00.500Z,3.17
2022-09-14T18:41:31.330Z,3.17
2022-09-14T18:43:59.289Z,1.75
2022-09-14T18:46:28.515Z,2.55
2022-09-14T18:48:58.627Z,2.80
2022-09-14T18:51:27.515Z,3.10
2022-09-14T18:54:04.741Z,3.10
2022-09-14T18:56:33.505Z,4.10
2022-09-14T18:59:02.546Z,2.95
2022-09-14T19:01:30.144Z,3.25
2022-09-14T19:03:57.711Z,8.30
2022-09-14T19:06:24.984Z,45.65
2022-09-14T19:08:52.027Z,27.00
2022-09-14T19:11:25.162Z,2.33
2022-09-14T19:14:12.723Z,4.47
2022-09-14T19:16:41.369Z,1.52
2022-09-14T19:19:11.733Z,3.00
2022-09-14T19:21:38.714Z,1.92
2022-09-14T19:24:11.388Z,8.82
2022-09-14T19:29:15.880Z,3.33
2022-09-14T19:31:42.783Z,3.10
2022-09-14T19:34:11.388Z,3.88
2022-09-14T19:36:38.221Z,2.83
2022-09-14T19:39:05.654Z,2.47
2022-09-14T19:41:34.258Z,1.50
2022-09-14T19:44:02.641Z,4.45
2022-09-14T19:46:31.325Z,1.17
2022-09-14T19:48:58.703Z,2.03
2022-09-14T19:51:28.745Z,2.88
2022-09-14T19:53:59.024Z,2.72
2022-09-14T19:56:30.361Z,1.67
2022-09-14T19:59:01.067Z,2.65
2022-09-14T20:01:30.603Z,0.95
2022-09-14T20:03:58.467Z,2.03
2022-09-14T20:06:31.997Z,2.60
2022-09-14T20:09:04.461Z,2.25
2022-09-14T20:11:33.920Z,2.13
2022-09-14T20:14:04.324Z,2.05
2022-09-14T20:16:38.174Z,2.47
2022-09-14T20:19:15.050Z,1.52
2022-09-14T20:21:44.037Z,4.30
2022-09-14T20:24:17.439Z,2.53
2022-09-14T20:26:47.026Z,1.50
2022-09-14T20:29:15.674Z,4.35
2022-09-14T20:31:42.761Z,1.00
2022-09-14T20:34:10.654Z,3.08
2022-09-14T20:36:37.881Z,1.77
2022-09-14T20:39:05.513Z,2.65
2022-09-14T20:41:34.994Z,2.65
2022-09-14T20:44:02.791Z,3.78
2022-09-14T20:46:42.510Z,2.30
2022-09-14T20:49:20.801Z,3.90
2022-09-14T20:51:55.069Z,1.90
2022-09-14T20:54:22.405Z,2.25
2022-09-14T20:56:49.272Z,2.75
2022-09-14T20:59:19.051Z,2.50
2022-09-14T21:01:49.397Z,1.98
2022-09-14T21:04:22.663Z,3.05
2022-09-14T21:06:53.791Z,1.55
2022-09-14T21:09:24.667Z,1.58
2022-09-14T21:11:52.749Z,1.55
2022-09-14T21:14:20.949Z,1.35
2022-09-14T21:16:51.006Z,1.98
2022-09-14T21:19:25.229Z,1.13
2022-09-14T21:21:52.548Z,3.63
2022-09-14T21:24:21.314Z,2.83
2022-09-14T21:26:48.723Z,1.75
2022-09-14T21:29:23.400Z,3.17
2022-09-14T21:31:51.188Z,1.98
2022-09-14T21:34:18.510Z,3.03
2022-09-14T21:36:51.225Z,1.85
2022-09-14T21:39:22.987Z,4.03
2022-09-14T21:41:57.302Z,2.38
2022-09-14T21:44:37.353Z,6.45
2022-09-14T21:47:04.944Z,3.15
2022-09-14T21:49:31.914Z,3.67
2022-09-14T21:51:58.797Z,1.77
2022-09-14T21:54:26.254Z,2.70
2022-09-14T21:56:54.037Z,2.65
2022-09-14T21:59:22.684Z,4.95
2022-09-14T22:01:49.936Z,1.60
2022-09-14T22:04:22.419Z,1.58
2022-09-14T22:06:51.586Z,4.72
2022-09-14T22:09:22.844Z,3.60
2022-09-14T22:11:49.817Z,4.63
2022-09-14T22:14:21.273Z,2.25
2022-09-14T22:16:49.198Z,3.83
2022-09-14T22:19:30.697Z,2.78
2022-09-14T22:21:58.076Z,5.55
2022-09-14T22:24:38.191Z,4.30
2022-09-14T22:27:10.370Z,3.38
2022-09-14T22:29:40.878Z,1.98
2022-09-14T22:32:10.193Z,2.53
2022-09-14T22:34:39.461Z,1.63
2022-09-14T22:37:06.499Z,4.78
2022-09-14T22:39:33.766Z,2.67
2022-09-14T22:42:00.532Z,3.50
2022-09-14T22:44:27.485Z,4.28
2022-09-14T22:46:54.328Z,4.25
2022-09-14T22:49:21.530Z,2.58
2022-09-14T22:51:48.350Z,4.20
2022-09-14T22:54:15.099Z,6.70
2022-09-14T22:56:42.085Z,5.07
2022-09-14T22:59:10.310Z,4.72
2022-09-14T23:01:40.677Z,5.07
2022-09-14T23:04:13.801Z,4.93
2022-09-14T23:06:45.949Z,5.68
2022-09-14T23:09:19.841Z,2.70
2022-09-14T23:11:47.058Z,4.45
2022-09-14T23:14:15.855Z,4.68
2022-09-14T23:16:45.162Z,2.92
2022-09-14T23:19:17.120Z,2.58
2022-09-14T23:21:45.300Z,2.17
2022-09-14T23:24:12.394Z,1.63
2022-09-14T23:26:39.676Z,1.80
2022-09-14T23:29:11.415Z,3.25
2022-09-14T23:31:38.393Z,4.87
2022-09-14T23:34:06.424Z,3.38
2022-09-14T23:36:33.976Z,5.28
2022-09-14T23:39:01.733Z,5.40
2022-09-14T23:41:29.071Z,6.30
2022-09-14T23:43:56.198Z,10.38
2022-09-14T23:46:23.471Z,6.65
2022-09-14T23:48:50.722Z,5.82
2022-09-14T23:51:17.940Z,7.65
2022-09-14T23:53:45.089Z,6.00
2022-09-14T23:56:12.906Z,7.25
2022-09-14T23:58:41.851Z,5.68
